Beaumaiden — PHOU — position and weather

sailwx.info

Track history (hours):
 
Tides and Currents Weather Stations Pressure Air Temp Water Temp Dewpoint Dewpoint Depression Visibility Wind Speed Wind Dir Waves Ship Positions

Beaumaiden

Last reported at 2017-Oct-19 00:00 UTC. Time now 2017-Oct-19 00:26 UTC.
Position N 40°57' E 024°28'.

Length 88 m; draft 4 m.

Type: Cargo ship. MMSI: 244366000.

Date/timePositionNaut miles runAvg speedWind from/ knotsBaromVisibWave heightAir tempDewpointWater temp
2017-Oct-19 00:00N 40°57' E 024°28'0 0.0
2017-Oct-18 23:30N 40°57' E 024°28'0 0.0
2017-Oct-18 23:00N 40°57' E 024°28'0 0.0
2017-Oct-18 22:30N 40°57' E 024°28'0 0.0
2017-Oct-18 22:00N 40°57' E 024°28'0 0.0
2017-Oct-18 21:30N 40°57' E 024°28'0 0.0
2017-Oct-18 21:00N 40°57' E 024°28'0 0.0
2017-Oct-18 20:30N 40°57' E 024°28'0 0.0
2017-Oct-18 20:00N 40°57' E 024°28'0 0.0
2017-Oct-18 19:30N 40°57' E 024°28'0 0.0
2017-Oct-18 19:00N 40°57' E 024°28'0 0.0
2017-Oct-18 18:30N 40°57' E 024°28'0 0.0
2017-Oct-18 18:00N 40°57' E 024°28'0 0.0
2017-Oct-18 17:30N 40°57' E 024°28'0 0.0
2017-Oct-18 17:00N 40°57' E 024°28'0 0.0
2017-Oct-18 16:30N 40°57' E 024°28'0 0.0
2017-Oct-18 16:00N 40°57' E 024°28'0 0.0
2017-Oct-18 15:30N 40°57' E 024°28'0 0.0
2017-Oct-18 15:00N 40°57' E 024°28'0 0.0
2017-Oct-18 14:00N 40°57' E 024°28'0 0.0
2017-Oct-18 13:30N 40°57' E 024°28'0 0.0
2017-Oct-18 13:00N 40°57' E 024°28'0 0.0
2017-Oct-18 12:30N 40°57' E 024°28'0 0.0
2017-Oct-18 12:00N 40°57' E 024°28'0 0.0
2017-Oct-18 11:30N 40°57' E 024°28'1 1.2
2017-Oct-18 11:00N 40°56' E 024°29'1 1.6
2017-Oct-18 10:30N 40°55' E 024°28'4 8.9
2017-Oct-18 10:00N 40°52' E 024°25'5 9.1
2017-Oct-18 09:30N 40°47' E 024°25'5 9.0
2017-Oct-18 09:00N 40°43' E 024°25'5 9.0
2017-Oct-18 08:30N 40°38' E 024°25'4 8.9
2017-Oct-18 08:00N 40°34' E 024°26'4 8.9
2017-Oct-18 07:30N 40°29' E 024°26'4 8.8
2017-Oct-18 07:00N 40°25' E 024°27'5 9.2
2017-Oct-18 06:30N 40°20' E 024°28'5 9.6
2017-Oct-18 06:00N 40°16' E 024°29'5 9.3
2017-Oct-18 05:30N 40°11' E 024°29'4 8.9
2017-Oct-18 05:00N 40°07' E 024°28'5 9.7
2017-Oct-18 04:30N 40°03' E 024°24'610.5
2017-Oct-18 03:57N 39°59' E 024°19'510.6
2017-Oct-18 03:28N 39°55' E 024°14'510.8
2017-Oct-18 03:00N 39°51' E 024°10'  
Track history (hours):
 
Tides and Currents Weather Stations Pressure Air Temp Water Temp Dewpoint Dewpoint Depression Visibility Wind Speed Wind Dir Waves Ship Positions

Beaumaiden

Last reported at 2017-Oct-19 00:00 UTC. Time now 2017-Oct-19 00:26 UTC.
Position N 40°57' E 024°28'.

Length 88 m; draft 4 m.

Type: Cargo ship. MMSI: 244366000.

Date/timePositionNaut miles runAvg speedWind from/ knotsBaromVisibWave heightAir tempDewpointWater temp
2017-Oct-19 00:00N 40°57' E 024°28'0 0.0
2017-Oct-18 23:30N 40°57' E 024°28'0 0.0
2017-Oct-18 23:00N 40°57' E 024°28'0 0.0
2017-Oct-18 22:30N 40°57' E 024°28'0 0.0
2017-Oct-18 22:00N 40°57' E 024°28'0 0.0
2017-Oct-18 21:30N 40°57' E 024°28'0 0.0
2017-Oct-18 21:00N 40°57' E 024°28'0 0.0
2017-Oct-18 20:30N 40°57' E 024°28'0 0.0
2017-Oct-18 20:00N 40°57' E 024°28'0 0.0
2017-Oct-18 19:30N 40°57' E 024°28'0 0.0
2017-Oct-18 19:00N 40°57' E 024°28'0 0.0
2017-Oct-18 18:30N 40°57' E 024°28'0 0.0
2017-Oct-18 18:00N 40°57' E 024°28'0 0.0
2017-Oct-18 17:30N 40°57' E 024°28'0 0.0
2017-Oct-18 17:00N 40°57' E 024°28'0 0.0
2017-Oct-18 16:30N 40°57' E 024°28'0 0.0
2017-Oct-18 16:00N 40°57' E 024°28'0 0.0
2017-Oct-18 15:30N 40°57' E 024°28'0 0.0
2017-Oct-18 15:00N 40°57' E 024°28'0 0.0
2017-Oct-18 14:00N 40°57' E 024°28'0 0.0
2017-Oct-18 13:30N 40°57' E 024°28'0 0.0
2017-Oct-18 13:00N 40°57' E 024°28'0 0.0
2017-Oct-18 12:30N 40°57' E 024°28'0 0.0
2017-Oct-18 12:00N 40°57' E 024°28'0 0.0
2017-Oct-18 11:30N 40°57' E 024°28'1 1.2
2017-Oct-18 11:00N 40°56' E 024°29'1 1.6
2017-Oct-18 10:30N 40°55' E 024°28'4 8.9
2017-Oct-18 10:00N 40°52' E 024°25'5 9.1
2017-Oct-18 09:30N 40°47' E 024°25'5 9.0
2017-Oct-18 09:00N 40°43' E 024°25'5 9.0
2017-Oct-18 08:30N 40°38' E 024°25'4 8.9
2017-Oct-18 08:00N 40°34' E 024°26'4 8.9
2017-Oct-18 07:30N 40°29' E 024°26'4 8.8
2017-Oct-18 07:00N 40°25' E 024°27'5 9.2
2017-Oct-18 06:30N 40°20' E 024°28'5 9.6
2017-Oct-18 06:00N 40°16' E 024°29'5 9.3
2017-Oct-18 05:30N 40°11' E 024°29'4 8.9
2017-Oct-18 05:00N 40°07' E 024°28'5 9.7
2017-Oct-18 04:30N 40°03' E 024°24'610.5
2017-Oct-18 03:57N 39°59' E 024°19'510.6
2017-Oct-18 03:28N 39°55' E 024°14'510.8
2017-Oct-18 03:00N 39°51' E 024°10'  

Dump ship's entire track history